Time;durP1;ratioP1;P1;durP2;ratioP2;P2;SDS_P1;SDS_P2;PMS_P1;PMS_P2;Temp;Humidity;BMP_temperature;BMP_pressure;BME280_temperature;BME280_humidity;BME280_pressure;Samples;Min_cycle;Max_cycle;Signal;HPM_P1;HPM_P2
2021/11/10 00:00:37;;;;;;;28.98;14.48;;;7.00;84.40;;;;;;5042381;28;20465;-74
2021/11/10 00:03:03;;;;;;;26.60;14.57;;;7.00;84.50;;;;;;5011387;28;20030;-73
2021/11/10 00:05:29;;;;;;;24.85;14.07;;;6.90;84.60;;;;;;5015476;28;20534;-73
2021/11/10 00:07:55;;;;;;;23.73;13.63;;;6.90;84.60;;;;;;5009507;28;20537;-73
2021/11/10 00:10:21;;;;;;;26.40;14.80;;;6.80;84.70;;;;;;5012150;28;20083;-76
2021/11/10 00:12:47;;;;;;;25.25;13.45;;;6.80;84.80;;;;;;5008562;28;20497;-74
2021/11/10 00:15:13;;;;;;;28.77;13.75;;;6.80;84.90;;;;;;5010053;28;20404;-73
2021/11/10 00:17:39;;;;;;;26.77;13.23;;;6.70;84.80;;;;;;5010061;28;20899;-72
2021/11/10 00:20:07;;;;;;;24.13;13.60;;;6.70;84.80;;;;;;5007712;28;20046;-73
2021/11/10 00:22:34;;;;;;;29.50;15.00;;;6.70;84.90;;;;;;5009595;28;20033;-73
2021/11/10 00:24:59;;;;;;;27.33;15.05;;;6.60;85.00;;;;;;5025852;28;20125;-73
2021/11/10 00:27:26;;;;;;;24.33;14.32;;;6.60;85.00;;;;;;5010801;28;20112;-73
2021/11/10 00:29:51;;;;;;;28.60;14.55;;;6.60;85.10;;;;;;5014092;28;20034;-74
2021/11/10 00:32:17;;;;;;;32.88;15.70;;;6.50;84.90;;;;;;5015300;28;20049;-73
2021/11/10 00:34:43;;;;;;;29.83;15.15;;;6.50;84.90;;;;;;5010717;28;20048;-73
2021/11/10 00:37:08;;;;;;;24.70;14.07;;;6.40;85.20;;;;;;5008406;28;20026;-75
2021/11/10 00:39:34;;;;;;;28.77;15.20;;;6.40;85.40;;;;;;5010278;28;20110;-77
2021/11/10 00:42:00;;;;;;;24.60;15.38;;;6.40;85.60;;;;;;5013940;28;20489;-74
2021/11/10 00:44:26;;;;;;;32.80;17.20;;;6.40;85.70;;;;;;5026586;28;20044;-74
2021/11/10 00:46:51;;;;;;;24.30;14.25;;;6.40;85.70;;;;;;5011930;28;20108;-73
2021/11/10 00:49:17;;;;;;;30.75;15.70;;;6.40;85.40;;;;;;5009067;28;20030;-75
2021/11/10 00:51:43;;;;;;;30.25;16.08;;;6.30;85.30;;;;;;5016059;28;20041;-75
2021/11/10 00:54:09;;;;;;;28.15;15.05;;;6.30;85.40;;;;;;5013409;28;20034;-75
2021/11/10 00:56:34;;;;;;;28.70;14.85;;;6.20;85.60;;;;;;5012274;28;20065;-72
2021/11/10 00:59:00;;;;;;;25.75;15.18;;;6.20;85.70;;;;;;5032818;28;20516;-72
2021/11/10 01:01:26;;;;;;;27.30;14.85;;;6.20;85.70;;;;;;5015475;28;20042;-73
2021/11/10 01:03:52;;;;;;;24.98;14.93;;;6.10;85.90;;;;;;5019814;28;20108;-73
2021/11/10 01:06:18;;;;;;;25.90;14.65;;;6.10;85.80;;;;;;5015262;28;20484;-74
2021/11/10 01:08:44;;;;;;;28.85;14.27;;;6.10;85.70;;;;;;5010954;28;20030;-72
2021/11/10 01:11:10;;;;;;;24.95;15.05;;;6.10;85.70;;;;;;5025960;28;20401;-72
2021/11/10 01:13:37;;;;;;;25.92;15.65;;;6.00;85.70;;;;;;5011284;28;20469;-72
2021/11/10 01:16:03;;;;;;;25.05;16.38;;;6.00;85.90;;;;;;5019138;28;20042;-73
2021/11/10 01:18:29;;;;;;;24.67;15.95;;;5.90;86.00;;;;;;5014653;28;20045;-73
2021/11/10 01:20:55;;;;;;;29.08;15.55;;;5.90;86.10;;;;;;5011962;28;20038;-72
2021/11/10 01:23:21;;;;;;;33.92;17.38;;;5.90;86.20;;;;;;5012373;28;20144;-74
2021/11/10 01:25:47;;;;;;;24.80;16.58;;;5.90;86.20;;;;;;5009580;28;20084;-74
2021/11/10 01:28:12;;;;;;;31.30;17.85;;;5.80;86.30;;;;;;5014777;28;20042;-77
2021/11/10 01:30:39;;;;;;;29.38;17.17;;;5.80;86.40;;;;;;5013783;28;20036;-73
2021/11/10 01:33:05;;;;;;;34.58;17.73;;;5.80;86.30;;;;;;5014602;28;20114;-73
2021/11/10 01:35:30;;;;;;;27.73;17.20;;;5.80;86.30;;;;;;5007898;28;20117;-73
2021/11/10 01:37:56;;;;;;;28.42;16.98;;;5.80;86.30;;;;;;5008786;28;20037;-75
2021/11/10 01:40:22;;;;;;;32.53;17.63;;;5.70;86.40;;;;;;5007411;28;20034;-73
2021/11/10 01:42:51;;;;;;;28.48;17.27;;;5.70;86.40;;;;;;5007920;28;20041;-73
2021/11/10 01:45:18;;;;;;;32.13;17.90;;;5.70;86.40;;;;;;5010002;28;20128;-74
2021/11/10 01:47:44;;;;;;;30.50;18.38;;;5.60;86.40;;;;;;5011599;28;20038;-73
2021/11/10 01:50:14;;;;;;;31.17;17.02;;;5.60;86.40;;;;;;5006927;28;20367;-73
2021/11/10 01:52:40;;;;;;;32.72;18.08;;;5.60;86.40;;;;;;5012563;28;20026;-73
2021/11/10 01:55:07;;;;;;;29.90;16.67;;;5.60;86.50;;;;;;5007391;28;20046;-73
2021/11/10 01:57:33;;;;;;;38.50;18.75;;;5.50;86.70;;;;;;5009721;28;20034;-73
2021/11/10 02:00:23;;;;;;;31.00;18.15;;;5.60;86.70;;;;;;5009512;28;20034;-73
2021/11/10 02:02:49;;;;;;;30.08;17.25;;;5.60;86.80;;;;;;5007527;28;20030;-73
2021/11/10 02:05:16;;;;;;;32.15;18.63;;;5.50;86.60;;;;;;5006417;28;20096;-73
2021/11/10 02:07:43;;;;;;;30.23;18.55;;;5.50;86.60;;;;;;5007199;28;20044;-73
2021/11/10 02:10:10;;;;;;;28.63;18.98;;;5.40;86.70;;;;;;5004974;28;20041;-73
2021/11/10 02:12:37;;;;;;;31.38;18.40;;;5.40;86.90;;;;;;5009963;28;20038;-72
2021/11/10 02:15:05;;;;;;;32.65;18.40;;;5.40;86.90;;;;;;5021519;28;20513;-73
2021/11/10 02:17:31;;;;;;;32.28;17.63;;;5.40;86.90;;;;;;5003670;28;20128;-73
2021/11/10 02:19:57;;;;;;;27.75;19.05;;;5.40;86.80;;;;;;5009053;28;20148;-73
2021/11/10 02:22:23;;;;;;;31.75;20.00;;;5.40;86.80;;;;;;5008475;28;20056;-73
2021/11/10 02:24:49;;;;;;;30.77;18.35;;;5.40;86.90;;;;;;5007207;28;20044;-72
2021/11/10 02:27:26;;;;;;;30.20;18.30;;;5.30;87.00;;;;;;5009165;28;20474;-73
2021/11/10 02:29:52;;;;;;;30.10;18.25;;;5.30;87.00;;;;;;5008918;28;20034;-74
2021/11/10 02:32:19;;;;;;;30.75;18.58;;;5.30;87.00;;;;;;5005997;28;20037;-73
2021/11/10 02:34:46;;;;;;;33.90;18.65;;;5.30;87.10;;;;;;5010534;28;20520;-75
2021/11/10 02:37:15;;;;;;;36.30;17.95;;;5.30;87.10;;;;;;4999143;28;20069;-73
2021/11/10 02:39:41;;;;;;;33.47;19.58;;;5.30;87.20;;;;;;5011577;28;20072;-73
2021/11/10 02:42:07;;;;;;;32.33;19.00;;;5.30;87.20;;;;;;5007014;28;20038;-72
2021/11/10 02:44:33;;;;;;;31.55;19.70;;;5.30;87.20;;;;;;5006241;28;20116;-73
2021/11/10 02:47:00;;;;;;;30.50;18.58;;;5.30;87.20;;;;;;5004426;28;20125;-76
2021/11/10 02:49:27;;;;;;;31.27;18.55;;;5.20;87.10;;;;;;5004566;28;20118;-72
2021/11/10 02:52:00;;;;;;;32.83;19.23;;;5.20;87.00;;;;;;5005583;28;20030;-72
2021/11/10 02:54:29;;;;;;;31.58;19.20;;;5.20;86.90;;;;;;5005813;28;20038;-74
2021/11/10 02:56:56;;;;;;;27.92;19.17;;;5.10;86.90;;;;;;5004428;28;20420;-72
2021/11/10 02:59:23;;;;;;;29.38;18.90;;;5.10;87.00;;;;;;5007832;28;20038;-73
2021/11/10 03:01:53;;;;;;;31.75;18.65;;;5.10;87.20;;;;;;5007039;28;20034;-75
2021/11/10 03:04:22;;;;;;;28.27;18.23;;;5.10;87.20;;;;;;5006064;28;20100;-74
2021/11/10 03:06:49;;;;;;;29.92;19.02;;;5.10;87.10;;;;;;5013867;28;20038;-73
2021/11/10 03:09:25;;;;;;;31.58;19.55;;;5.10;87.20;;;;;;5004265;28;20469;-74
2021/11/10 03:11:53;;;;;;;31.13;19.15;;;5.10;87.30;;;;;;5007063;28;20038;-73
2021/11/10 03:14:19;;;;;;;32.65;20.17;;;5.10;87.30;;;;;;5004102;28;20045;-73
2021/11/10 03:16:45;;;;;;;36.97;19.40;;;5.10;87.30;;;;;;5024271;28;20033;-72
2021/11/10 03:19:11;;;;;;;35.67;19.77;;;5.10;87.30;;;;;;5006348;28;20054;-73
2021/11/10 03:21:38;;;;;;;33.05;20.60;;;5.10;87.30;;;;;;5007652;28;20917;-72
2021/11/10 03:24:04;;;;;;;33.15;19.45;;;5.10;87.40;;;;;;5006887;28;20045;-74
2021/11/10 03:26:30;;;;;;;31.02;20.15;;;5.10;87.40;;;;;;5005228;28;20396;-74
2021/11/10 03:28:56;;;;;;;32.55;19.88;;;5.10;87.30;;;;;;5009034;28;20033;-73
2021/11/10 03:31:22;;;;;;;34.53;20.83;;;5.10;87.30;;;;;;5007146;28;20103;-73
2021/11/10 03:33:48;;;;;;;38.53;20.23;;;5.10;87.20;;;;;;5006289;28;20485;-72
2021/11/10 03:36:15;;;;;;;32.75;19.25;;;5.10;87.10;;;;;;5008592;28;20038;-73
2021/11/10 03:38:41;;;;;;;35.63;19.25;;;5.10;87.00;;;;;;5021259;28;20105;-73
2021/11/10 03:41:07;;;;;;;30.20;19.13;;;5.10;87.10;;;;;;5009896;28;20474;-73
2021/11/10 03:43:34;;;;;;;29.00;18.70;;;5.10;87.10;;;;;;5005068;28;21419;-72
2021/11/10 03:46:00;;;;;;;34.15;20.73;;;5.10;87.20;;;;;;5007405;28;20385;-73
2021/11/10 03:48:26;;;;;;;28.90;19.17;;;5.10;87.20;;;;;;5003255;28;20030;-74
2021/11/10 03:50:51;;;;;;;32.90;19.88;;;5.10;87.30;;;;;;5007643;28;20022;-76
2021/11/10 03:53:17;;;;;;;34.85;19.17;;;5.10;87.30;;;;;;4999206;28;20405;-74
2021/11/10 03:55:43;;;;;;;35.47;19.88;;;5.10;87.20;;;;;;5007602;28;20171;-74
2021/11/10 03:58:10;;;;;;;32.72;19.30;;;5.00;87.10;;;;;;5004589;28;20513;-74
2021/11/10 04:00:36;;;;;;;30.40;18.48;;;5.00;87.20;;;;;;5006786;28;20117;-74
2021/11/10 04:03:02;;;;;;;32.83;18.13;;;5.00;87.30;;;;;;5005692;28;20080;-75
2021/11/10 04:05:28;;;;;;;30.83;18.63;;;4.90;87.30;;;;;;5001972;28;20044;-73
2021/11/10 04:07:54;;;;;;;26.77;18.40;;;4.90;87.30;;;;;;5006845;28;20038;-74
2021/11/10 04:10:21;;;;;;;36.90;20.00;;;4.90;87.40;;;;;;5005909;28;20033;-75
2021/11/10 04:12:47;;;;;;;30.98;19.52;;;4.90;87.40;;;;;;5008606;28;20377;-73
2021/11/10 04:15:13;;;;;;;35.78;21.25;;;4.80;87.40;;;;;;5003833;28;20042;-73
2021/11/10 04:17:39;;;;;;;30.48;19.17;;;4.80;87.50;;;;;;5006586;28;20034;-74
2021/11/10 04:20:06;;;;;;;30.27;19.65;;;4.80;87.50;;;;;;5011549;28;20046;-75
2021/11/10 04:22:32;;;;;;;31.95;19.10;;;4.80;87.50;;;;;;5005416;28;20034;-73
2021/11/10 04:24:57;;;;;;;34.85;19.95;;;4.80;87.60;;;;;;5006245;28;20050;-73
2021/11/10 04:27:23;;;;;;;32.03;19.98;;;4.80;87.60;;;;;;5009163;28;20056;-74
2021/11/10 04:29:49;;;;;;;35.85;20.15;;;4.70;87.60;;;;;;5015722;28;20390;-73
2021/11/10 04:32:16;;;;;;;34.55;21.45;;;4.80;87.60;;;;;;5006430;28;20144;-73
2021/11/10 04:34:43;;;;;;;33.70;21.13;;;4.80;87.40;;;;;;5020861;28;20536;-73
2021/11/10 04:37:11;;;;;;;32.25;20.23;;;4.80;87.50;;;;;;5007484;28;20497;-73
2021/11/10 04:39:37;;;;;;;35.67;21.23;;;4.80;87.50;;;;;;5008768;28;20116;-72
2021/11/10 04:42:04;;;;;;;34.35;20.20;;;4.80;87.40;;;;;;5010181;28;20390;-72
2021/11/10 04:44:30;;;;;;;30.67;19.10;;;4.80;87.40;;;;;;5009290;28;20069;-72
2021/11/10 04:46:56;;;;;;;38.13;19.77;;;4.80;87.40;;;;;;5010221;28;20033;-72
2021/11/10 04:49:22;;;;;;;41.53;21.13;;;4.70;87.40;;;;;;5016037;28;20038;-73
2021/11/10 04:51:48;;;;;;;32.20;19.92;;;4.80;87.50;;;;;;5018553;28;20053;-72
2021/11/10 04:54:18;;;;;;;33.60;19.75;;;4.70;87.60;;;;;;5017572;28;20033;-73
2021/11/10 04:56:44;;;;;;;32.75;19.63;;;4.70;87.60;;;;;;5008729;28;20042;-73
2021/11/10 04:59:10;;;;;;;32.55;18.52;;;4.70;87.70;;;;;;5009708;28;20045;-72
2021/11/10 05:01:42;;;;;;;33.38;19.08;;;4.70;87.50;;;;;;5024554;28;20030;-73
2021/11/10 05:04:08;;;;;;;35.80;19.65;;;4.70;87.50;;;;;;5009498;28;20441;-72
2021/11/10 05:06:34;;;;;;;35.47;19.60;;;4.70;87.50;;;;;;5010574;28;20057;-72
2021/11/10 05:09:00;;;;;;;32.88;19.08;;;4.70;87.60;;;;;;5010458;28;20034;-72
2021/11/10 05:11:25;;;;;;;35.53;18.35;;;4.70;87.70;;;;;;5008389;28;20261;-74
2021/11/10 05:13:52;;;;;;;34.75;19.50;;;4.80;87.60;;;;;;5010005;28;20038;-74
2021/11/10 05:16:18;;;;;;;34.75;19.95;;;4.80;87.40;;;;;;5007611;28;20374;-75
2021/11/10 05:18:44;;;;;;;32.50;19.52;;;4.80;87.40;;;;;;5007543;28;20050;-75
2021/11/10 05:21:10;;;;;;;35.08;20.02;;;4.80;87.30;;;;;;5007015;28;20068;-73
2021/11/10 05:23:36;;;;;;;38.33;22.75;;;4.80;87.30;;;;;;5011024;28;20355;-73
2021/11/10 05:26:02;;;;;;;36.60;25.60;;;4.90;87.20;;;;;;5007565;28;20038;-73
2021/11/10 05:28:28;;;;;;;36.10;23.15;;;4.90;86.90;;;;;;5008810;28;20469;-75
2021/11/10 05:30:55;;;;;;;38.10;23.73;;;5.00;86.80;;;;;;5009036;28;20030;-73
2021/11/10 05:33:20;;;;;;;33.03;19.92;;;5.10;86.70;;;;;;5008758;28;20455;-73
2021/11/10 05:35:46;;;;;;;33.58;20.70;;;5.10;86.40;;;;;;5008347;28;20045;-74
2021/11/10 05:38:12;;;;;;;40.78;20.17;;;5.20;86.40;;;;;;5008271;28;20088;-73
2021/11/10 05:40:38;;;;;;;34.13;20.25;;;5.30;86.20;;;;;;5006469;28;20069;-74
2021/11/10 05:43:05;;;;;;;32.45;19.85;;;5.40;86.10;;;;;;5010257;28;20062;-73
2021/11/10 05:45:32;;;;;;;30.33;19.58;;;5.40;85.90;;;;;;5007762;28;20038;-73
2021/11/10 05:47:58;;;;;;;35.60;19.27;;;5.50;85.70;;;;;;5004664;28;20030;-74
2021/11/10 05:50:24;;;;;;;29.15;18.98;;;5.60;85.50;;;;;;5007348;28;20087;-73
2021/11/10 05:52:50;;;;;;;33.92;19.58;;;5.60;85.40;;;;;;5008429;28;20542;-74
2021/11/10 05:55:16;;;;;;;35.80;18.65;;;5.60;85.40;;;;;;5006980;28;20060;-76
2021/11/10 05:57:43;;;;;;;33.72;19.13;;;5.70;85.30;;;;;;5006302;28;20038;-73
2021/11/10 06:00:11;;;;;;;32.17;19.27;;;5.70;85.10;;;;;;5007366;28;20813;-75
2021/11/10 06:02:38;;;;;;;33.95;18.10;;;5.70;85.00;;;;;;5006291;28;20034;-75
2021/11/10 06:05:05;;;;;;;32.58;18.50;;;5.70;84.90;;;;;;5007267;28;20088;-75
2021/11/10 06:07:31;;;;;;;37.97;18.95;;;5.70;84.90;;;;;;5007425;28;20034;-73
2021/11/10 06:09:56;;;;;;;36.78;18.58;;;5.60;85.00;;;;;;5008687;28;20042;-74
2021/11/10 06:12:22;;;;;;;32.30;18.98;;;5.60;85.10;;;;;;5005012;28;20037;-73
2021/11/10 06:14:47;;;;;;;34.67;19.67;;;5.50;85.10;;;;;;5007519;28;20050;-74
2021/11/10 06:17:13;;;;;;;36.13;19.05;;;5.40;85.30;;;;;;5005143;28;20048;-74
2021/11/10 06:19:39;;;;;;;30.98;17.67;;;5.40;85.40;;;;;;5006755;28;20553;-74
2021/11/10 06:22:04;;;;;;;28.60;18.38;;;5.40;85.50;;;;;;5002178;28;20449;-74
2021/11/10 06:24:30;;;;;;;32.88;19.88;;;5.30;85.50;;;;;;5007031;28;20034;-74
2021/11/10 06:26:56;;;;;;;33.10;19.02;;;5.30;85.60;;;;;;5005893;28;20026;-74
2021/11/10 06:29:23;;;;;;;35.17;19.65;;;5.10;85.70;;;;;;5013467;28;20042;-74
2021/11/10 06:31:50;;;;;;;30.52;19.60;;;5.10;85.70;;;;;;5021869;28;20033;-74
2021/11/10 06:34:16;;;;;;;35.33;19.65;;;5.10;85.70;;;;;;5006934;28;20048;-73
2021/11/10 06:36:42;;;;;;;34.35;20.25;;;5.00;85.90;;;;;;5008011;28;20030;-75
2021/11/10 06:39:07;;;;;;;30.25;19.98;;;5.00;86.00;;;;;;5004530;28;20469;-73
2021/11/10 06:41:33;;;;;;;35.60;20.30;;;5.00;86.00;;;;;;5005062;28;20026;-74
2021/11/10 06:43:59;;;;;;;34.70;19.90;;;5.00;86.00;;;;;;5003955;28;20030;-71
2021/11/10 06:46:25;;;;;;;36.53;20.92;;;4.90;86.10;;;;;;5008098;28;20563;-72
2021/11/10 06:48:51;;;;;;;37.83;19.80;;;4.90;86.10;;;;;;5007413;28;20030;-72
2021/11/10 06:51:16;;;;;;;34.72;19.58;;;4.90;86.10;;;;;;5003978;28;20618;-72
2021/11/10 06:53:43;;;;;;;32.45;19.23;;;4.90;86.00;;;;;;5005554;28;20026;-72
2021/11/10 06:56:10;;;;;;;34.03;19.50;;;4.90;86.00;;;;;;5006354;28;20440;-72
2021/11/10 06:58:36;;;;;;;31.77;19.92;;;4.90;86.10;;;;;;5006734;28;20037;-72
2021/11/10 07:01:02;;;;;;;33.80;19.08;;;4.80;86.10;;;;;;5004042;28;20030;-71
2021/11/10 07:03:29;;;;;;;32.95;20.30;;;4.80;86.30;;;;;;5005980;28;20362;-72
2021/11/10 07:05:54;;;;;;;35.08;19.75;;;4.80;86.30;;;;;;5005983;28;20053;-72
2021/11/10 07:08:20;;;;;;;30.75;18.15;;;4.70;86.20;;;;;;5007362;28;20058;-71
2021/11/10 07:10:46;;;;;;;32.17;20.92;;;4.70;86.20;;;;;;5007915;28;20045;-71
2021/11/10 07:13:12;;;;;;;37.03;19.85;;;4.70;86.30;;;;;;5006530;28;20042;-75
2021/11/10 07:15:37;;;;;;;37.78;21.65;;;4.70;86.30;;;;;;5010106;28;20409;-71
2021/11/10 07:18:03;;;;;;;38.20;21.25;;;4.70;86.40;;;;;;5007931;28;20034;-70
2021/11/10 07:20:29;;;;;;;34.85;20.50;;;4.70;86.50;;;;;;5012738;28;20550;-70
2021/11/10 07:22:58;;;;;;;36.00;20.20;;;4.80;86.60;;;;;;5009781;28;20445;-73
2021/11/10 07:25:24;;;;;;;35.28;21.15;;;4.90;86.50;;;;;;5005939;28;20042;-70
2021/11/10 07:27:50;;;;;;;37.72;22.02;;;5.10;86.30;;;;;;5006485;28;20033;-69
2021/11/10 07:30:16;;;;;;;35.03;21.58;;;5.10;86.20;;;;;;5007097;28;20038;-72
2021/11/10 07:32:42;;;;;;;35.10;20.38;;;5.20;86.00;;;;;;5021315;28;20068;-70
2021/11/10 07:35:10;;;;;;;36.08;22.25;;;5.30;86.00;;;;;;5007801;28;20137;-71
2021/11/10 07:37:37;;;;;;;37.20;20.10;;;5.40;85.70;;;;;;5004196;28;20436;-71
2021/11/10 07:40:06;;;;;;;37.92;20.92;;;5.50;85.50;;;;;;5006734;28;20074;-72
2021/11/10 07:42:33;;;;;;;30.17;20.60;;;5.50;85.20;;;;;;5020198;28;20436;-70
2021/11/10 07:45:09;;;;;;;36.03;21.20;;;5.60;85.20;;;;;;5019874;28;20088;-71
2021/11/10 07:47:45;;;;;;;35.10;21.13;;;5.50;84.90;;;;;;5011089;28;20096;-70
2021/11/10 07:50:17;;;;;;;32.65;20.08;;;5.50;84.70;;;;;;5005188;28;20033;-73
2021/11/10 07:52:43;;;;;;;34.25;21.05;;;5.50;84.80;;;;;;5022764;28;20045;-71
2021/11/10 07:55:09;;;;;;;30.95;19.65;;;5.50;84.80;;;;;;5005967;28;20088;-70
2021/11/10 07:57:36;;;;;;;29.67;18.73;;;5.60;84.80;;;;;;5009771;28;20030;-72
2021/11/10 08:00:07;;;;;;;27.42;18.52;;;5.70;84.70;;;;;;5006686;28;20026;-72
2021/11/10 08:02:32;;;;;;;29.65;20.05;;;5.70;84.80;;;;;;5004759;28;20371;-71
2021/11/10 08:04:58;;;;;;;33.78;19.70;;;5.80;84.80;;;;;;5007745;28;20076;-71
2021/11/10 08:07:24;;;;;;;33.47;19.45;;;5.80;84.60;;;;;;5006490;28;20513;-70
2021/11/10 08:09:49;;;;;;;34.83;20.10;;;5.80;84.30;;;;;;5009030;28;20041;-71
2021/11/10 08:12:15;;;;;;;34.85;20.08;;;6.00;84.40;;;;;;5008250;28;20069;-71
2021/11/10 08:14:41;;;;;;;33.05;20.02;;;6.00;84.10;;;;;;5009962;28;20042;-71
2021/11/10 08:17:06;;;;;;;29.80;17.80;;;6.10;83.90;;;;;;5009382;28;20567;-71
2021/11/10 08:19:32;;;;;;;32.20;21.00;;;6.10;83.90;;;;;;5011496;28;20200;-71
2021/11/10 08:21:58;;;;;;;36.47;18.58;;;6.10;83.90;;;;;;5010831;28;20385;-72
2021/11/10 08:24:27;;;;;;;30.83;18.02;;;6.20;84.00;;;;;;5009746;28;20370;-71
2021/11/10 08:26:52;;;;;;;30.27;19.00;;;6.20;83.90;;;;;;5007919;28;20034;-70
2021/11/10 08:29:18;;;;;;;32.72;20.30;;;6.30;83.90;;;;;;5001174;28;20042;-71
2021/11/10 08:31:44;;;;;;;36.40;20.02;;;6.30;83.70;;;;;;4998352;28;20045;-74
2021/11/10 08:34:10;;;;;;;29.30;18.90;;;6.30;83.60;;;;;;4999920;28;20084;-73
2021/11/10 08:36:35;;;;;;;29.58;17.90;;;6.40;83.60;;;;;;4996237;28;20969;-74
2021/11/10 08:39:02;;;;;;;31.15;19.40;;;6.40;83.70;;;;;;4998379;28;20063;-72
2021/11/10 08:41:27;;;;;;;28.17;17.58;;;6.50;83.60;;;;;;4999135;28;20038;-71
2021/11/10 08:43:53;;;;;;;32.78;18.83;;;6.50;83.60;;;;;;5001803;28;20034;-70
2021/11/10 08:46:19;;;;;;;32.45;19.25;;;6.50;83.60;;;;;;4995600;28;20061;-75
2021/11/10 08:48:47;;;;;;;32.80;18.80;;;6.60;83.70;;;;;;4998289;28;20072;-74
2021/11/10 08:51:13;;;;;;;29.55;18.40;;;6.70;83.20;;;;;;4996104;28;20458;-72
2021/11/10 08:53:39;;;;;;;33.65;19.40;;;6.80;83.30;;;;;;5002236;28;20112;-70
2021/11/10 08:56:06;;;;;;;33.95;21.27;;;6.90;83.10;;;;;;5008689;28;20104;-70
2021/11/10 08:58:32;;;;;;;30.38;18.00;;;7.10;83.10;;;;;;5010131;28;20117;-71
2021/11/10 09:00:58;;;;;;;29.55;19.30;;;7.40;82.40;;;;;;5010329;28;20026;-72
2021/11/10 09:03:25;;;;;;;30.08;18.52;;;7.50;81.40;;;;;;5009895;28;20052;-71
2021/11/10 09:05:52;;;;;;;27.52;18.98;;;7.50;80.80;;;;;;5005041;28;20058;-71
2021/11/10 09:08:19;;;;;;;33.38;19.35;;;7.60;81.00;;;;;;5008766;28;20042;-71
2021/11/10 09:10:45;;;;;;;28.42;17.70;;;7.70;80.60;;;;;;5011316;28;20042;-70
2021/11/10 09:13:11;;;;;;;30.35;19.23;;;7.90;80.60;;;;;;5010184;28;20460;-70
2021/11/10 09:15:37;;;;;;;27.67;17.73;;;8.00;79.80;;;;;;5008702;28;20046;-71
2021/11/10 09:18:06;;;;;;;31.02;17.88;;;8.10;79.90;;;;;;5006171;28;20552;-71
2021/11/10 09:20:34;;;;;;;31.92;18.75;;;8.20;79.30;;;;;;5008182;28;20046;-71
2021/11/10 09:23:02;;;;;;;32.53;18.60;;;8.20;79.20;;;;;;5008205;28;20052;-71
2021/11/10 09:25:29;;;;;;;30.75;18.77;;;8.30;78.90;;;;;;5009700;28;20045;-71
2021/11/10 09:27:58;;;;;;;28.52;16.98;;;8.50;79.00;;;;;;5008296;28;20481;-71
2021/11/10 09:30:26;;;;;;;30.35;17.00;;;8.60;78.30;;;;;;5005892;28;20057;-71
2021/11/10 09:32:53;;;;;;;34.67;19.08;;;8.80;77.90;;;;;;5008120;28;20470;-70
2021/11/10 09:35:20;;;;;;;29.52;16.85;;;9.10;77.50;;;;;;5008848;28;20046;-71
2021/11/10 09:37:45;;;;;;;31.35;18.60;;;9.30;76.20;;;;;;5013400;28;20042;-75
2021/11/10 09:40:14;;;;;;;28.02;17.85;;;9.60;75.40;;;;;;5007553;28;20026;-71
2021/11/10 09:42:42;;;;;;;31.55;18.23;;;9.70;74.50;;;;;;5009723;28;20386;-70
2021/11/10 09:45:12;;;;;;;30.00;18.88;;;9.80;74.10;;;;;;5010582;28;20029;-71
2021/11/10 09:47:39;;;;;;;23.10;15.68;;;10.00;73.70;;;;;;5003032;28;20465;-73
2021/11/10 09:50:07;;;;;;;27.48;18.33;;;10.10;73.50;;;;;;5005990;28;20042;-69
2021/11/10 09:52:32;;;;;;;26.33;17.25;;;10.20;73.60;;;;;;5001795;28;20034;-73
2021/11/10 09:54:58;;;;;;;23.98;16.58;;;10.10;73.10;;;;;;5001031;28;20037;-73
2021/11/10 09:57:24;;;;;;;26.33;18.40;;;10.20;74.00;;;;;;4994956;28;20034;-73
2021/11/10 09:59:50;;;;;;;27.38;17.02;;;10.30;73.50;;;;;;4999692;28;20065;-72
2021/11/10 10:02:16;;;;;;;26.52;18.23;;;10.30;72.70;;;;;;4995565;28;20069;-71
2021/11/10 10:04:44;;;;;;;29.85;19.13;;;10.30;72.90;;;;;;5000188;28;20033;-70
2021/11/10 10:07:10;;;;;;;25.27;17.35;;;10.20;73.50;;;;;;5007653;28;20041;-72
2021/11/10 10:09:36;;;;;;;28.20;16.60;;;10.20;73.80;;;;;;5007417;28;20030;-70
2021/11/10 10:12:03;;;;;;;28.48;18.85;;;10.40;73.80;;;;;;5005420;28;20453;-70
2021/11/10 10:14:29;;;;;;;31.42;18.85;;;10.40;73.20;;;;;;5008463;28;20385;-70
2021/11/10 10:16:56;;;;;;;28.75;17.17;;;10.40;72.80;;;;;;5008467;28;20034;-70
2021/11/10 10:19:23;;;;;;;29.50;17.95;;;10.30;72.60;;;;;;5007442;28;20521;-70
2021/11/10 10:22:00;;;;;;;28.33;18.42;;;10.30;73.70;;;;;;5008881;28;20397;-70
2021/11/10 10:24:25;;;;;;;26.98;17.83;;;10.20;73.90;;;;;;5022554;28;20037;-70
2021/11/10 10:26:51;;;;;;;28.58;18.08;;;10.50;74.20;;;;;;5008542;28;20034;-71
2021/11/10 10:29:17;;;;;;;31.10;19.70;;;10.80;72.50;;;;;;5010769;28;20030;-71
2021/11/10 10:31:43;;;;;;;33.47;20.75;;;10.80;72.20;;;;;;5005792;28;20389;-72
2021/11/10 10:34:12;;;;;;;41.95;25.80;;;11.00;72.50;;;;;;5005217;28;20041;-75
2021/11/10 10:36:40;;;;;;;33.22;22.25;;;10.90;71.80;;;;;;5023314;28;20042;-71
2021/11/10 10:39:07;;;;;;;27.95;18.40;;;11.10;71.40;;;;;;5007010;28;20110;-71
2021/11/10 10:41:36;;;;;;;32.70;19.20;;;11.10;71.00;;;;;;5006805;28;20180;-71
2021/11/10 10:44:14;;;;;;;29.35;19.15;;;11.40;70.50;;;;;;5004058;28;20030;-72
2021/11/10 10:46:56;;;;;;;26.60;17.92;;;11.70;69.80;;;;;;5004814;28;20041;-71
2021/11/10 10:49:33;;;;;;;25.92;17.88;;;11.90;68.80;;;;;;5018865;28;20410;-72
2021/11/10 10:52:18;;;;;;;22.95;16.38;;;11.90;67.90;;;;;;5004754;28;20477;-70
2021/11/10 10:54:46;;;;;;;28.38;17.00;;;11.80;67.90;;;;;;5022406;28;20026;-71
2021/11/10 10:57:16;;;;;;;27.75;16.90;;;11.60;68.40;;;;;;5006135;28;20489;-71
2021/11/10 10:59:43;;;;;;;26.38;16.50;;;11.60;68.70;;;;;;5012488;28;20033;-72
2021/11/10 11:02:08;;;;;;;28.67;17.08;;;11.60;68.80;;;;;;5007448;28;20041;-71
2021/11/10 11:04:42;;;;;;;28.23;18.45;;;11.70;68.90;;;;;;5011389;28;20033;-72
2021/11/10 11:07:10;;;;;;;29.42;16.58;;;11.60;69.20;;;;;;5004371;28;20430;-71
2021/11/10 11:09:49;;;;;;;30.73;17.88;;;11.60;69.20;;;;;;5021579;28;20113;-71
2021/11/10 11:12:21;;;;;;;27.35;16.80;;;11.50;68.90;;;;;;5005003;28;20030;-71
2021/11/10 11:15:24;;;;;;;31.55;16.60;;;11.40;69.60;;;;;;5006023;28;20053;-70
2021/11/10 11:17:52;;;;;;;28.15;17.25;;;11.20;69.70;;;;;;5004038;28;20033;-70
2021/11/10 11:20:29;;;;;;;29.05;17.02;;;11.30;70.90;;;;;;5006263;28;20374;-70
2021/11/10 11:22:57;;;;;;;28.38;19.15;;;11.50;69.60;;;;;;5007292;28;20046;-71
2021/11/10 11:25:24;;;;;;;37.42;18.13;;;11.60;69.10;;;;;;5006090;28;20065;-70
2021/11/10 11:28:10;;;;;;;31.08;17.27;;;11.60;69.10;;;;;;5007877;28;20034;-73
2021/11/10 11:30:51;;;;;;;31.90;17.75;;;11.70;69.20;;;;;;5006240;28;20049;-76
2021/11/10 11:33:17;;;;;;;27.17;16.73;;;11.70;69.00;;;;;;5013594;28;20037;-70
2021/11/10 11:35:46;;;;;;;27.77;17.92;;;11.80;69.60;;;;;;5005560;28;20128;-71
2021/11/10 11:38:15;;;;;;;27.83;17.77;;;12.00;68.70;;;;;;5003533;28;20485;-70
2021/11/10 11:40:46;;;;;;;29.35;18.65;;;12.10;68.70;;;;;;5015439;28;20042;-72
2021/11/10 11:43:16;;;;;;;28.85;17.65;;;12.10;67.50;;;;;;5020153;28;20033;-70
2021/11/10 11:45:47;;;;;;;30.52;18.50;;;12.10;67.90;;;;;;5007316;28;20045;-72
2021/11/10 11:48:15;;;;;;;32.17;18.90;;;12.10;68.40;;;;;;5006206;28;20052;-70
2021/11/10 11:50:41;;;;;;;28.92;17.23;;;12.10;68.40;;;;;;5007544;28;20386;-71
2021/11/10 11:53:08;;;;;;;29.83;18.60;;;12.10;68.30;;;;;;5008629;28;20034;-69
2021/11/10 11:55:45;;;;;;;29.60;17.45;;;12.30;68.60;;;;;;5006313;28;20193;-69
2021/11/10 11:58:17;;;;;;;25.90;15.70;;;12.40;67.40;;;;;;5006949;28;20562;-72
2021/11/10 12:00:50;;;;;;;30.85;18.73;;;12.40;67.50;;;;;;5024518;28;20385;-70
2021/11/10 12:03:20;;;;;;;35.30;18.13;;;12.10;68.30;;;;;;5007649;28;20500;-70
2021/11/10 12:05:47;;;;;;;27.90;17.98;;;12.10;68.70;;;;;;5006835;28;20088;-70
2021/11/10 12:08:33;;;;;;;28.48;17.75;;;12.10;68.80;;;;;;5007530;28;20048;-74
2021/11/10 12:11:18;;;;;;;26.48;18.02;;;12.00;68.60;;;;;;5007236;28;20037;-71
2021/11/10 12:14:22;;;;;;;30.38;18.85;;;12.00;69.90;;;;;;5006686;28;20045;-73
2021/11/10 12:17:07;;;;;;;31.95;19.02;;;12.00;69.50;;;;;;5006784;28;20608;-72
2021/11/10 12:19:56;;;;;;;33.53;18.67;;;11.80;69.70;;;;;;5006740;28;20099;-71
2021/11/10 12:22:23;;;;;;;32.00;19.25;;;11.90;70.80;;;;;;5006753;28;20034;-71
2021/11/10 12:24:52;;;;;;;31.75;19.50;;;11.80;71.10;;;;;;5008391;28;20040;-71
2021/11/10 12:27:34;;;;;;;30.23;18.05;;;11.80;70.90;;;;;;5009617;28;20034;-71
2021/11/10 12:30:09;;;;;;;25.98;17.80;;;11.80;70.20;;;;;;5023603;28;20456;-71
2021/11/10 12:32:35;;;;;;;;;;;11.80;70.40;;;;;;5011336;28;20037;-71
2021/11/10 12:35:03;;;;;;;29.75;17.52;;;11.90;70.40;;;;;;5008134;28;20288;-74
2021/11/10 12:37:40;;;;;;;32.40;18.42;;;11.90;70.70;;;;;;5022618;28;20084;-70